Terminal Aerodrome Forecast
Issued by NWS Wichita, KS

Home | Current Version | Previous Version | Text Only | Print | Product List | Glossary On
Versions: 1 2 3 4 5 6 7 8 9 10 11 12 13 14 15 16 17
000
FTUS43 KICT 141742
TAFICT
TAF
KICT 141742Z 1418/1518 20017G26KT P6SM VCTS BKN080CB
     FM142200 23015G23KT P6SM VCTS BKN070CB
      TEMPO 1422/1501 VRB20G35KT 3SM +TSRA OVC050CB
     FM150100 33027G37KT P6SM BKN090
     FM151100 34016G23KT P6SM SKC=

USA.gov is the U.S. government's official web portal to all federal, state and local government web resources and services.